Lentvaris, Lithuania
Current Conditions -  °F | °C
As of 2:20 PM on Sunday 23 Nov 2014 (Local Time) from EYVI Reporting Station
Haze Haze  
Wind Chill: 32°   Ceiling: 300
Heat Index: 32°   Visibility: 1.4mi
Dew Point: 32°   Wind: 3mph
Humidity: 100%   Direction: 70°ENE
Pressure: 30.48"   Gusts: NA
Location:  54.65°N, 25.05°E
Report Text: EYVI 231120Z 07003KT 2300 BR OVC003 00/00 Q1032 R02/2///95 NOSIG
Loading
Personal Weather Stations






























Interactive Weather Map New forecast layout! Learn more

10-Day Weather Forecast

Advertisements
Track Severe Weather on mobile